createdAt,value
2022-12-17T00:01:41.531Z,-1.26
2022-12-17T00:04:26.787Z,-1.25
2022-12-17T00:07:11.946Z,-1.24
2022-12-17T00:09:57.119Z,-1.41
2022-12-17T00:12:42.530Z,-1.48
2022-12-17T00:15:29.484Z,-1.38
2022-12-17T00:18:20.864Z,-1.54
2022-12-17T00:21:11.189Z,-1.29
2022-12-17T00:23:56.198Z,-1.32
2022-12-17T00:26:42.201Z,-1.57
2022-12-17T00:29:27.587Z,-1.57
2022-12-17T00:32:14.097Z,-1.40
2022-12-17T00:34:59.748Z,-1.61
2022-12-17T00:37:44.965Z,-1.32
2022-12-17T00:40:30.395Z,-1.29
2022-12-17T00:43:19.298Z,-1.18
2022-12-17T00:46:07.631Z,-1.09
2022-12-17T00:48:54.797Z,-0.88
2022-12-17T00:51:42.304Z,-0.92
2022-12-17T00:54:27.979Z,-1.03
2022-12-17T00:57:12.537Z,-1.04
2022-12-17T00:59:57.680Z,-1.05
2022-12-17T01:02:44.048Z,-1.44
2022-12-17T01:05:31.096Z,-1.30
2022-12-17T01:08:27.873Z,-1.09
2022-12-17T01:11:17.520Z,-1.15
2022-12-17T01:14:02.735Z,-1.14
2022-12-17T01:16:48.046Z,-1.11
2022-12-17T01:19:33.268Z,-1.10
2022-12-17T01:22:20.360Z,-1.09
2022-12-17T01:25:05.458Z,-1.46
2022-12-17T01:27:50.959Z,-1.21
2022-12-17T01:30:36.440Z,-1.31
2022-12-17T01:33:22.682Z,-1.62
2022-12-17T01:36:08.473Z,-1.63
2022-12-17T01:38:55.114Z,-1.63
2022-12-17T01:41:40.529Z,-2.05
2022-12-17T01:45:03.878Z,-2.30
2022-12-17T01:47:51.789Z,-2.10
2022-12-17T01:50:37.184Z,-1.85
2022-12-17T01:53:35.309Z,-1.83
2022-12-17T01:56:22.858Z,-2.13
2022-12-17T01:59:08.282Z,-2.22
2022-12-17T02:01:59.885Z,-2.11
2022-12-17T02:04:45.869Z,-2.15
2022-12-17T02:07:41.454Z,-2.11
2022-12-17T02:10:36.823Z,-2.33
2022-12-17T02:13:28.779Z,-2.43
2022-12-17T02:16:17.874Z,-2.41
2022-12-17T02:19:07.576Z,-2.14
2022-12-17T02:21:54.043Z,-2.59
2022-12-17T02:24:47.644Z,-2.67
2022-12-17T02:27:34.640Z,-2.64
2022-12-17T02:30:21.405Z,-2.55
2022-12-17T02:33:08.516Z,-2.13
2022-12-17T02:35:56.880Z,-2.23
2022-12-17T02:38:44.126Z,-2.27
2022-12-17T02:41:33.221Z,-2.17
2022-12-17T02:44:21.631Z,-2.20
2022-12-17T02:47:08.830Z,-2.29
2022-12-17T02:49:54.330Z,-2.45
2022-12-17T02:52:40.095Z,-2.64
2022-12-17T02:55:26.153Z,-2.47
2022-12-17T02:58:11.324Z,-2.72
2022-12-17T03:00:58.296Z,-2.73
2022-12-17T03:03:48.714Z,-2.60
2022-12-17T03:06:35.563Z,-2.32
2022-12-17T03:09:20.664Z,-2.23
2022-12-17T03:12:06.078Z,-2.25
2022-12-17T03:14:51.316Z,-2.70
2022-12-17T03:17:38.088Z,-2.21
2022-12-17T03:20:24.341Z,-2.21
2022-12-17T03:23:09.530Z,-2.03
2022-12-17T03:25:54.866Z,-2.29
2022-12-17T03:28:40.203Z,-1.96
2022-12-17T03:31:25.397Z,-1.98
2022-12-17T03:34:12.333Z,-1.87
2022-12-17T03:36:57.664Z,-2.13
2022-12-17T03:39:42.670Z,-2.01
2022-12-17T03:42:27.973Z,-1.81
2022-12-17T03:45:13.176Z,-1.80
2022-12-17T03:47:58.629Z,-1.76
2022-12-17T03:50:45.399Z,-1.48
2022-12-17T03:53:30.394Z,-1.45
2022-12-17T03:56:15.662Z,-1.20
2022-12-17T03:59:01.160Z,-1.29
2022-12-17T04:01:46.632Z,-1.58
2022-12-17T04:04:32.006Z,-1.76
2022-12-17T04:07:18.505Z,-1.91
2022-12-17T04:10:03.971Z,-1.84
2022-12-17T04:12:50.406Z,-1.63
2022-12-17T04:15:35.789Z,-1.56
2022-12-17T04:18:21.245Z,-1.51
2022-12-17T04:21:15.240Z,-1.64
2022-12-17T04:24:02.351Z,-1.56
2022-12-17T04:26:47.492Z,-1.67
2022-12-17T04:29:32.834Z,-1.97
2022-12-17T04:32:17.925Z,-1.96
2022-12-17T04:35:03.408Z,-2.11
2022-12-17T04:37:48.836Z,-2.05
2022-12-17T04:40:35.315Z,-2.20
2022-12-17T04:43:24.626Z,-2.30
2022-12-17T04:46:09.819Z,-2.42
2022-12-17T04:48:55.158Z,-2.64
2022-12-17T04:51:40.399Z,-2.89
2022-12-17T04:54:25.850Z,-2.95
2022-12-17T04:57:12.515Z,-2.89
2022-12-17T04:59:57.622Z,-2.97
2022-12-17T05:02:43.281Z,-3.03
2022-12-17T05:05:29.175Z,-2.85
2022-12-17T05:08:15.364Z,-2.86
2022-12-17T05:11:01.194Z,-2.88
2022-12-17T05:13:47.655Z,-2.63
2022-12-17T05:16:33.061Z,-2.52
2022-12-17T05:19:18.567Z,-2.74
2022-12-17T05:22:03.707Z,-2.75
2022-12-17T05:24:49.409Z,-2.91
2022-12-17T05:27:34.573Z,-3.14
2022-12-17T05:30:20.885Z,-3.12
2022-12-17T05:33:06.083Z,-3.18
2022-12-17T05:35:56.870Z,-3.08
2022-12-17T05:38:42.379Z,-3.10
2022-12-17T05:41:27.576Z,-3.38
2022-12-17T05:44:12.815Z,-3.11
2022-12-17T05:46:59.386Z,-2.96
2022-12-17T05:49:45.132Z,-2.78
2022-12-17T05:52:30.460Z,-2.57
2022-12-17T05:55:15.758Z,-2.54
2022-12-17T05:58:01.079Z,-2.47
2022-12-17T06:00:46.744Z,-2.67
2022-12-17T06:03:33.405Z,-2.86
2022-12-17T06:06:18.911Z,-2.51
2022-12-17T06:09:04.428Z,-2.44
2022-12-17T06:11:49.532Z,-2.86
2022-12-17T06:14:34.680Z,-2.66
2022-12-17T06:17:20.123Z,-2.58
2022-12-17T06:20:06.367Z,-2.41
2022-12-17T06:22:51.491Z,-2.61
2022-12-17T06:25:36.934Z,-2.52
2022-12-17T06:28:22.182Z,-2.40
2022-12-17T06:31:09.570Z,-2.48
2022-12-17T06:33:55.597Z,-2.58
2022-12-17T06:36:42.232Z,-2.56
2022-12-17T06:39:27.945Z,-2.26
2022-12-17T06:42:13.081Z,-2.11
2022-12-17T06:44:58.870Z,-2.13
2022-12-17T06:47:44.071Z,-1.97
2022-12-17T06:50:29.254Z,-1.87
2022-12-17T06:53:20.221Z,-1.89
2022-12-17T06:56:05.467Z,-2.00
2022-12-17T06:58:50.653Z,-1.74
2022-12-17T07:01:36.421Z,-1.78
2022-12-17T07:04:36.790Z,-1.69
2022-12-17T07:07:22.037Z,-1.94
2022-12-17T07:10:13.935Z,-1.98
2022-12-17T07:12:59.894Z,-1.97
2022-12-17T07:15:45.285Z,-1.87
2022-12-17T07:18:30.812Z,-2.20
2022-12-17T07:21:16.073Z,-2.14
2022-12-17T07:24:01.291Z,-2.35
2022-12-17T07:26:47.737Z,-2.05
2022-12-17T07:29:33.572Z,-1.97
2022-12-17T07:32:19.166Z,-2.25
2022-12-17T07:35:04.406Z,-2.24
2022-12-17T07:37:50.145Z,-2.22
2022-12-17T07:40:35.583Z,-2.47
2022-12-17T07:43:28.429Z,-2.67
2022-12-17T07:46:13.635Z,-2.46
2022-12-17T07:48:59.262Z,-2.20
2022-12-17T07:51:44.578Z,-2.25
2022-12-17T07:54:29.828Z,-2.17
2022-12-17T07:57:15.008Z,-2.00
2022-12-17T08:00:01.486Z,-1.98
2022-12-17T08:02:46.815Z,-2.04
2022-12-17T08:05:32.543Z,-2.02
2022-12-17T08:08:26.306Z,-2.10
2022-12-17T08:11:11.457Z,-2.07
2022-12-17T08:13:56.536Z,-2.16
2022-12-17T08:16:43.290Z,-2.12
2022-12-17T08:19:28.852Z,-2.07
2022-12-17T08:22:13.894Z,-2.02
2022-12-17T08:24:59.400Z,-2.08
2022-12-17T08:27:52.863Z,-1.96
2022-12-17T08:30:38.096Z,-1.83
2022-12-17T08:33:25.947Z,-1.71
2022-12-17T08:36:11.806Z,-1.75
2022-12-17T08:38:57.363Z,-1.77
2022-12-17T08:41:42.521Z,-1.63
2022-12-17T08:44:27.700Z,-1.51
2022-12-17T08:47:12.840Z,-1.55
2022-12-17T08:49:59.190Z,-1.46
2022-12-17T08:52:44.385Z,-1.31
2022-12-17T08:55:29.650Z,-1.19
2022-12-17T08:58:16.130Z,-0.92
2022-12-17T09:01:01.734Z,-0.88
2022-12-17T09:03:47.433Z,-1.02
2022-12-17T09:06:38.912Z,-0.86
2022-12-17T09:09:24.723Z,-0.73
2022-12-17T09:12:10.048Z,-0.74
2022-12-17T09:14:55.123Z,-0.51
2022-12-17T09:17:40.279Z,-0.42
2022-12-17T09:20:29.212Z,-0.39
2022-12-17T09:23:16.667Z,-0.14
2022-12-17T09:26:10.485Z,0.16
2022-12-17T09:28:55.791Z,0.19
2022-12-17T09:31:42.186Z,0.02
2022-12-17T09:34:27.340Z,-0.01
2022-12-17T09:37:12.491Z,0.18
2022-12-17T09:39:59.340Z,0.32
2022-12-17T09:42:52.518Z,0.54
2022-12-17T09:45:42.654Z,0.87
2022-12-17T09:48:32.883Z,0.93
2022-12-17T09:51:17.467Z,1.02
2022-12-17T09:54:04.362Z,1.18
2022-12-17T09:56:51.826Z,1.26
2022-12-17T09:59:39.799Z,1.22
2022-12-17T10:02:32.694Z,1.17
2022-12-17T10:05:19.340Z,1.35
2022-12-17T10:08:05.173Z,1.49
2022-12-17T10:10:51.637Z,1.43
2022-12-17T10:13:40.724Z,1.79
2022-12-17T10:16:40.223Z,2.13
2022-12-17T10:19:32.507Z,2.14
2022-12-17T10:22:28.767Z,2.01
2022-12-17T10:25:13.932Z,1.81
2022-12-17T10:27:59.307Z,1.96
2022-12-17T10:30:46.796Z,1.86
2022-12-17T10:33:36.513Z,2.15
2022-12-17T10:36:22.709Z,2.85
2022-12-17T10:39:12.860Z,2.48
2022-12-17T10:42:00.436Z,3.09
2022-12-17T10:44:47.055Z,3.37
2022-12-17T10:47:35.211Z,3.88
2022-12-17T10:50:21.860Z,4.39
2022-12-17T10:53:07.692Z,4.97
2022-12-17T10:55:53.782Z,5.13
2022-12-17T10:58:40.542Z,5.41
2022-12-17T11:01:44.106Z,5.35
2022-12-17T11:04:44.718Z,5.01
2022-12-17T11:07:34.462Z,6.36
2022-12-17T11:10:21.304Z,7.03
2022-12-17T11:13:08.170Z,7.93
2022-12-17T11:15:57.361Z,8.68
2022-12-17T11:18:46.522Z,8.18
2022-12-17T11:21:35.964Z,7.34
2022-12-17T11:24:22.945Z,7.22
2022-12-17T11:27:10.586Z,5.61
2022-12-17T11:29:55.784Z,4.96
2022-12-17T11:33:05.894Z,4.76
2022-12-17T11:36:01.233Z,6.21
2022-12-17T11:38:57.071Z,5.74
2022-12-17T11:41:52.546Z,6.44
2022-12-17T11:44:47.319Z,9.15
2022-12-17T11:47:34.936Z,9.27
2022-12-17T11:50:26.228Z,9.15
2022-12-17T11:57:26.903Z,10.02
2022-12-17T12:00:19.118Z,10.87
2022-12-17T12:03:12.916Z,9.00
2022-12-17T12:06:04.056Z,11.15
2022-12-17T12:08:52.862Z,11.47
2022-12-17T12:11:44.969Z,7.32
2022-12-17T12:14:39.998Z,14.19
2022-12-17T12:17:44.481Z,12.13
2022-12-17T12:20:38.592Z,9.03
2022-12-17T12:23:31.442Z,9.77
2022-12-17T12:26:21.317Z,9.00
2022-12-17T12:29:11.931Z,7.02
2022-12-17T12:32:03.329Z,7.40
2022-12-17T12:38:38.571Z,14.25
2022-12-17T12:41:30.208Z,12.46
2022-12-17T12:44:19.053Z,10.75
2022-12-17T12:47:11.685Z,9.61
2022-12-17T12:50:01.091Z,9.08
2022-12-17T12:52:46.546Z,6.86
2022-12-17T12:55:32.176Z,9.07
2022-12-17T12:58:18.832Z,7.22
2022-12-17T13:01:12.030Z,7.62
2022-12-17T13:04:08.700Z,8.34
2022-12-17T13:06:43.283Z,7.89
2022-12-17T13:09:39.739Z,7.06
2022-12-17T13:12:23.819Z,8.54
2022-12-17T13:14:56.131Z,7.17
2022-12-17T13:17:33.935Z,7.69
2022-12-17T13:20:20.533Z,10.93
2022-12-17T13:22:52.953Z,13.31
2022-12-17T13:25:22.771Z,12.01
2022-12-17T13:27:51.485Z,14.33
2022-12-17T13:30:34.452Z,13.88
2022-12-17T13:33:19.713Z,9.58
2022-12-17T13:35:59.106Z,8.87
2022-12-17T13:38:34.342Z,9.04
2022-12-17T13:41:10.523Z,12.24
2022-12-17T13:43:41.427Z,13.40
2022-12-17T13:46:18.910Z,9.97
2022-12-17T13:48:53.741Z,7.11
2022-12-17T13:51:23.888Z,5.83
2022-12-17T13:53:55.931Z,6.22
2022-12-17T13:56:27.516Z,7.79
2022-12-17T13:58:57.379Z,8.38
2022-12-17T14:01:27.155Z,10.31
2022-12-17T14:04:06.143Z,9.02
2022-12-17T14:06:38.017Z,7.30
2022-12-17T14:09:06.621Z,7.95
2022-12-17T14:11:52.016Z,6.59
2022-12-17T14:14:23.565Z,6.05
2022-12-17T14:16:51.444Z,6.66
2022-12-17T14:19:22.153Z,7.90
2022-12-17T14:21:51.579Z,8.78
2022-12-17T14:24:20.464Z,7.15
2022-12-17T14:26:50.226Z,8.82
2022-12-17T14:29:23.859Z,9.39
2022-12-17T14:31:56.555Z,8.27
2022-12-17T14:34:24.551Z,7.69
2022-12-17T14:36:58.232Z,6.13
2022-12-17T14:39:27.681Z,5.99
2022-12-17T14:42:15.035Z,7.09
2022-12-17T14:44:52.026Z,8.43
2022-12-17T14:47:22.428Z,8.47
2022-12-17T14:49:56.487Z,9.06
2022-12-17T14:52:38.515Z,8.79
2022-12-17T14:55:30.642Z,7.57
2022-12-17T14:58:17.741Z,5.74
2022-12-17T15:00:47.990Z,4.77
2022-12-17T15:03:20.240Z,4.15
2022-12-17T15:05:51.963Z,3.48
2022-12-17T15:08:22.673Z,3.08
2022-12-17T15:10:50.523Z,2.61
2022-12-17T15:13:18.428Z,2.26
2022-12-17T15:15:46.562Z,2.02
2022-12-17T15:18:14.427Z,1.74
2022-12-17T15:20:42.351Z,1.59
2022-12-17T15:23:15.911Z,1.54
2022-12-17T15:25:47.093Z,1.19
2022-12-17T15:28:15.642Z,0.97
2022-12-17T15:30:43.615Z,0.80
2022-12-17T15:33:12.461Z,0.62
2022-12-17T15:35:40.499Z,0.37
2022-12-17T15:38:08.999Z,0.32
2022-12-17T15:40:37.735Z,0.15
2022-12-17T15:43:11.955Z,-0.08
2022-12-17T15:45:40.732Z,-0.23
2022-12-17T15:48:09.384Z,-0.25
2022-12-17T15:50:37.515Z,-0.26
2022-12-17T15:53:05.493Z,-0.21
2022-12-17T15:55:33.429Z,-0.37
2022-12-17T15:58:01.251Z,-0.35
2022-12-17T16:00:30.711Z,-0.42
2022-12-17T16:02:58.775Z,-0.76
2022-12-17T16:05:26.854Z,-0.91
2022-12-17T16:07:58.892Z,-1.08
2022-12-17T16:10:26.921Z,-1.13
2022-12-17T16:12:54.717Z,-1.18
2022-12-17T16:15:22.614Z,-1.33
2022-12-17T16:17:51.917Z,-1.39
2022-12-17T16:20:20.897Z,-1.33
2022-12-17T16:22:48.919Z,-1.14
2022-12-17T16:25:17.006Z,-1.09
2022-12-17T16:27:44.776Z,-1.26
2022-12-17T16:30:14.173Z,-1.22
2022-12-17T16:32:41.929Z,-1.41
2022-12-17T16:35:11.348Z,-1.37
2022-12-17T16:37:39.132Z,-1.67
2022-12-17T16:40:08.020Z,-1.64
2022-12-17T16:42:35.734Z,-1.65
2022-12-17T16:45:03.551Z,-1.72
2022-12-17T16:47:31.295Z,-1.88
2022-12-17T16:49:59.116Z,-1.96
2022-12-17T16:52:28.302Z,-2.21
2022-12-17T16:54:56.322Z,-2.24
2022-12-17T16:57:24.328Z,-2.22
2022-12-17T16:59:52.109Z,-2.26
2022-12-17T17:02:20.478Z,-2.34
2022-12-17T17:04:48.868Z,-2.61
2022-12-17T17:07:16.608Z,-2.46
2022-12-17T17:09:45.746Z,-2.55
2022-12-17T17:12:13.600Z,-2.49
2022-12-17T17:14:43.794Z,-2.33
2022-12-17T17:17:11.965Z,-2.29
2022-12-17T17:19:39.896Z,-2.33
2022-12-17T17:22:07.676Z,-2.33
2022-12-17T17:24:35.575Z,-2.25
2022-12-17T17:27:04.903Z,-2.41
2022-12-17T17:29:32.704Z,-2.47
2022-12-17T17:32:09.714Z,-2.66
2022-12-17T17:34:39.316Z,-2.83
2022-12-17T17:37:07.089Z,-2.90
2022-12-17T17:39:35.068Z,-2.96
2022-12-17T17:42:04.567Z,-3.02
2022-12-17T17:44:32.333Z,-2.99
2022-12-17T17:47:00.302Z,-2.88
2022-12-17T17:49:28.865Z,-2.86
2022-12-17T17:52:12.432Z,-2.82
2022-12-17T17:54:40.800Z,-2.80
2022-12-17T17:57:10.562Z,-2.97
2022-12-17T17:59:39.239Z,-2.80
2022-12-17T18:02:07.608Z,-2.91
2022-12-17T18:04:35.478Z,-2.77
2022-12-17T18:09:51.027Z,-2.75
2022-12-17T18:12:37.619Z,-3.03
2022-12-17T18:15:15.775Z,-2.72
2022-12-17T18:17:45.411Z,-2.75
2022-12-17T18:20:13.473Z,-2.63
2022-12-17T18:22:41.536Z,-2.62
2022-12-17T18:25:09.403Z,-2.61
2022-12-17T18:27:38.719Z,-2.51
2022-12-17T18:30:07.570Z,-2.45
2022-12-17T18:32:35.551Z,-2.50
2022-12-17T18:35:03.660Z,-2.44
2022-12-17T18:37:31.443Z,-2.40
2022-12-17T18:39:59.312Z,-2.51
2022-12-17T18:42:44.493Z,-2.56
2022-12-17T18:45:16.768Z,-2.50
2022-12-17T18:47:45.178Z,-2.49
2022-12-17T18:50:13.481Z,-2.62
2022-12-17T18:52:42.310Z,-2.53
2022-12-17T18:55:13.455Z,-2.58
2022-12-17T18:57:41.731Z,-2.44
2022-12-17T19:00:10.928Z,-2.42
2022-12-17T19:02:40.285Z,-2.41
2022-12-17T19:05:08.937Z,-2.54
2022-12-17T19:07:36.764Z,-2.61
2022-12-17T19:10:05.090Z,-2.51
2022-12-17T19:12:33.314Z,-2.41
2022-12-17T19:15:01.128Z,-2.52
2022-12-17T19:17:29.015Z,-2.37
2022-12-17T19:19:58.258Z,-2.31
2022-12-17T19:22:26.098Z,-2.29
2022-12-17T19:24:53.975Z,-2.34
2022-12-17T19:27:21.976Z,-2.23
2022-12-17T19:29:57.159Z,-2.30
2022-12-17T19:32:25.393Z,-2.21
2022-12-17T19:34:53.276Z,-2.25
2022-12-17T19:37:22.702Z,-2.27
2022-12-17T19:39:50.505Z,-2.11
2022-12-17T19:42:25.431Z,-2.00
2022-12-17T19:44:53.922Z,-1.90
2022-12-17T19:47:22.452Z,-2.08
2022-12-17T19:49:50.373Z,-2.23
2022-12-17T19:52:18.192Z,-2.21
2022-12-17T19:54:47.400Z,-2.15
2022-12-17T19:57:16.792Z,-2.08
2022-12-17T19:59:44.633Z,-2.40
2022-12-17T20:02:12.649Z,-2.52
2022-12-17T20:04:40.544Z,-2.55
2022-12-17T20:07:08.310Z,-2.52
2022-12-17T20:09:36.064Z,-2.47
2022-12-17T20:12:05.476Z,-2.52
2022-12-17T20:14:34.264Z,-2.43
2022-12-17T20:17:02.689Z,-2.61
2022-12-17T20:19:32.363Z,-2.52
2022-12-17T20:22:01.431Z,-2.25
2022-12-17T20:24:31.870Z,-2.16
2022-12-17T20:27:00.219Z,-2.17
2022-12-17T20:29:30.059Z,-2.10
2022-12-17T20:31:57.966Z,-2.12
2022-12-17T20:34:26.241Z,-1.91
2022-12-17T20:36:54.659Z,-1.94
2022-12-17T20:39:27.135Z,-1.84
2022-12-17T20:41:55.994Z,-1.60
2022-12-17T20:44:23.731Z,-1.66
2022-12-17T20:46:52.892Z,-1.76
2022-12-17T20:49:20.758Z,-1.93
2022-12-17T20:51:48.497Z,-1.97
2022-12-17T20:54:16.280Z,-1.83
2022-12-17T20:56:44.021Z,-1.89
2022-12-17T20:59:15.540Z,-1.64
2022-12-17T21:01:43.600Z,-1.58
2022-12-17T21:04:13.554Z,-1.68
2022-12-17T21:06:42.819Z,-1.72
2022-12-17T21:09:11.634Z,-1.77
2022-12-17T21:11:40.073Z,-1.75
2022-12-17T21:14:09.511Z,-1.86
2022-12-17T21:16:38.173Z,-1.91
2022-12-17T21:19:07.038Z,-1.89
2022-12-17T21:21:37.911Z,-1.90
2022-12-17T21:24:06.499Z,-1.81
2022-12-17T21:26:35.963Z,-1.84
2022-12-17T21:29:05.612Z,-2.04
2022-12-17T21:31:35.400Z,-1.97
2022-12-17T21:34:05.994Z,-1.79
2022-12-17T21:36:36.200Z,-1.60
2022-12-17T21:39:09.273Z,-1.72
2022-12-17T21:41:39.367Z,-1.58
2022-12-17T21:44:13.626Z,-1.59
2022-12-17T21:46:43.256Z,-1.39
2022-12-17T21:49:11.754Z,-1.37
2022-12-17T21:51:41.074Z,-1.37
2022-12-17T21:54:10.684Z,-1.25
2022-12-17T21:56:41.052Z,-1.20
2022-12-17T21:59:08.758Z,-1.07
2022-12-17T22:01:36.729Z,-1.12
2022-12-17T22:04:05.597Z,-1.02
2022-12-17T22:06:40.542Z,-1.13
2022-12-17T22:09:22.742Z,-1.31
2022-12-17T22:12:16.215Z,-1.62
2022-12-17T22:14:44.454Z,-1.79
2022-12-17T22:17:12.184Z,-2.09
2022-12-17T22:19:39.973Z,-2.10
2022-12-17T22:22:07.773Z,-2.12
2022-12-17T22:24:37.082Z,-2.13
2022-12-17T22:27:05.155Z,-2.22
2022-12-17T22:29:55.207Z,-2.27
2022-12-17T22:32:40.554Z,-2.55
2022-12-17T22:35:37.437Z,-2.56
2022-12-17T22:41:00.608Z,-2.60
2022-12-17T22:44:35.015Z,-2.53
2022-12-17T22:44:41.787Z,-2.49
2022-12-17T22:46:21.312Z,-2.42
2022-12-17T22:48:49.081Z,-2.61
2022-12-17T22:51:23.185Z,-2.70
2022-12-17T22:53:56.805Z,-2.87
2022-12-17T22:56:58.707Z,-3.02
2022-12-17T22:59:16.675Z,-3.11
2022-12-17T23:01:44.564Z,-3.25
2022-12-17T23:04:13.858Z,-3.35
2022-12-17T23:06:41.761Z,-3.33
2022-12-17T23:09:09.636Z,-3.42
2022-12-17T23:11:38.771Z,-3.74
2022-12-17T23:14:08.620Z,-3.82
2022-12-17T23:16:38.736Z,-3.55
2022-12-17T23:19:06.795Z,-3.55
2022-12-17T23:21:35.065Z,-3.54
2022-12-17T23:24:03.118Z,-3.52
2022-12-17T23:26:32.847Z,-3.48
2022-12-17T23:29:04.900Z,-3.66
2022-12-17T23:31:34.919Z,-3.66
2022-12-17T23:34:03.358Z,-3.69
2022-12-17T23:36:31.135Z,-3.92
2022-12-17T23:38:59.450Z,-3.85
2022-12-17T23:41:28.930Z,-3.73
2022-12-17T23:43:56.923Z,-3.75
2022-12-17T23:46:28.042Z,-4.07
2022-12-17T23:48:55.965Z,-4.01
2022-12-17T23:51:24.621Z,-4.35
2022-12-17T23:53:52.560Z,-4.49
2022-12-17T23:56:22.149Z,-4.25
2022-12-17T23:58:53.220Z,-4.10
